Time;durP1;ratioP1;P1;durP2;ratioP2;P2;SDS_P1;SDS_P2;PMS_P1;PMS_P2;Temp;Humidity;BMP_temperature;BMP_pressure;BME280_temperature;BME280_humidity;BME280_pressure;Samples;Min_cycle;Max_cycle;Signal;HPM_P1;HPM_P2
2022/03/08 00:00:19;;;;;;;1.00;0.70;;;19.00;44.40;;;;;;6195773;28;20057;-68
2022/03/08 00:03:19;;;;;;;1.17;0.90;;;19.00;44.40;;;;;;6196407;28;20048;-68
2022/03/08 00:06:20;;;;;;;1.75;0.80;;;18.90;44.30;;;;;;6195512;28;20030;-68
2022/03/08 00:09:21;;;;;;;1.00;0.80;;;18.90;44.30;;;;;;6195520;28;20030;-68
2022/03/08 00:12:21;;;;;;;0.65;0.50;;;19.00;44.40;;;;;;6195704;28;20038;-68
2022/03/08 00:15:25;;;;;;;2.33;1.00;;;18.90;44.40;;;;;;6194348;28;20026;-68
2022/03/08 00:18:25;;;;;;;1.15;0.80;;;18.90;44.30;;;;;;6195070;28;20113;-68
2022/03/08 00:21:26;;;;;;;2.03;1.00;;;18.90;44.40;;;;;;6195523;28;20022;-68
2022/03/08 00:24:26;;;;;;;1.67;0.90;;;18.90;44.40;;;;;;6194716;28;20241;-68
2022/03/08 00:27:28;;;;;;;0.75;0.70;;;18.90;45.10;;;;;;6194987;28;20030;-68
2022/03/08 00:30:29;;;;;;;1.77;0.73;;;18.90;44.50;;;;;;6194930;28;20086;-68
2022/03/08 00:33:30;;;;;;;1.35;0.80;;;18.90;45.10;;;;;;6195582;28;20061;-68
2022/03/08 00:36:31;;;;;;;1.63;0.80;;;19.00;44.60;;;;;;6195470;28;20031;-68
2022/03/08 00:39:32;;;;;;;1.05;0.95;;;18.90;44.50;;;;;;6195234;28;20389;-68
2022/03/08 00:42:33;;;;;;;1.30;0.80;;;18.90;44.50;;;;;;6194790;28;20033;-68
2022/03/08 00:45:33;;;;;;;1.00;0.88;;;18.90;44.50;;;;;;6194613;28;20030;-68
2022/03/08 00:48:34;;;;;;;0.82;0.63;;;18.90;44.50;;;;;;6194825;28;20027;-68
2022/03/08 00:51:34;;;;;;;1.70;0.90;;;18.90;44.60;;;;;;6194522;28;20072;-68
2022/03/08 00:54:36;;;;;;;1.85;0.90;;;18.90;44.50;;;;;;6194471;28;20061;-68
2022/03/08 00:57:37;;;;;;;2.20;1.00;;;18.90;44.50;;;;;;6194769;28;20034;-68
2022/03/08 01:00:39;;;;;;;2.20;0.93;;;18.90;44.60;;;;;;6195090;28;20030;-68
2022/03/08 01:03:40;;;;;;;3.63;1.27;;;18.90;44.60;;;;;;6195502;28;20019;-68
2022/03/08 01:06:41;;;;;;;1.50;0.85;;;18.90;44.60;;;;;;6194816;28;20050;-68
2022/03/08 01:09:42;;;;;;;1.35;0.90;;;18.90;44.60;;;;;;6195080;28;20038;-68
2022/03/08 01:12:44;;;;;;;1.48;1.10;;;18.90;44.60;;;;;;6194359;28;20049;-68
2022/03/08 01:15:44;;;;;;;0.90;0.70;;;18.90;44.60;;;;;;6194477;28;20033;-68
2022/03/08 01:18:45;;;;;;;1.20;0.90;;;18.90;44.60;;;;;;6193858;28;20042;-68
2022/03/08 01:21:45;;;;;;;1.40;0.80;;;18.90;44.60;;;;;;6194768;28;20377;-68
2022/03/08 01:24:46;;;;;;;1.05;0.80;;;18.90;44.60;;;;;;6193659;28;20042;-68
2022/03/08 01:27:47;;;;;;;1.02;0.77;;;18.90;44.70;;;;;;6193338;28;20500;-68
2022/03/08 01:30:48;;;;;;;1.00;0.90;;;18.90;44.60;;;;;;6193797;28;20049;-68
2022/03/08 01:33:54;;;;;;;1.88;0.85;;;18.90;44.60;;;;;;6194029;28;20062;-68
2022/03/08 01:36:55;;;;;;;1.95;0.90;;;18.90;44.60;;;;;;6194062;28;20044;-68
2022/03/08 01:39:55;;;;;;;1.10;0.80;;;18.90;44.60;;;;;;6194348;28;20038;-68
2022/03/08 01:42:56;;;;;;;1.02;0.70;;;18.90;44.60;;;;;;6197910;28;20378;-68
2022/03/08 01:45:56;;;;;;;1.35;0.85;;;18.90;44.70;;;;;;6193885;28;20072;-68
2022/03/08 01:48:57;;;;;;;2.78;1.35;;;18.90;44.70;;;;;;6193550;28;20555;-68
2022/03/08 01:51:57;;;;;;;1.48;0.90;;;18.90;44.70;;;;;;6193829;28;20034;-68
2022/03/08 01:54:58;;;;;;;0.93;0.70;;;18.90;44.70;;;;;;6193484;28;20034;-68
2022/03/08 01:57:59;;;;;;;1.90;1.08;;;18.90;44.70;;;;;;6193776;28;20035;-68
2022/03/08 02:01:00;;;;;;;1.10;0.68;;;18.90;44.70;;;;;;6193396;28;20034;-68
2022/03/08 02:04:01;;;;;;;1.02;0.70;;;18.90;44.80;;;;;;6193803;28;20019;-68
2022/03/08 02:07:04;;;;;;;1.00;0.70;;;18.90;44.80;;;;;;6193744;28;20088;-68
2022/03/08 02:10:07;;;;;;;1.08;0.80;;;18.90;44.70;;;;;;6194019;28;20044;-69
2022/03/08 02:13:07;;;;;;;1.48;1.02;;;18.90;44.70;;;;;;6193675;28;20022;-68
2022/03/08 02:16:10;;;;;;;1.45;0.90;;;18.90;44.70;;;;;;6193227;28;20034;-68
2022/03/08 02:19:11;;;;;;;1.40;0.95;;;18.90;44.70;;;;;;6193540;28;20027;-68
2022/03/08 02:22:12;;;;;;;1.98;1.20;;;18.90;44.80;;;;;;6193711;28;20025;-68
2022/03/08 02:25:13;;;;;;;1.13;0.80;;;18.90;44.70;;;;;;6193138;28;20054;-68
2022/03/08 02:28:15;;;;;;;1.55;1.05;;;18.90;44.80;;;;;;6193022;28;20026;-68
2022/03/08 02:31:17;;;;;;;1.33;0.80;;;18.90;44.80;;;;;;6193488;28;20042;-68
2022/03/08 02:34:18;;;;;;;1.38;1.10;;;18.90;44.80;;;;;;6193729;28;20089;-68
2022/03/08 02:37:20;;;;;;;1.15;0.90;;;18.90;44.80;;;;;;6193369;28;20030;-68
2022/03/08 02:40:24;;;;;;;1.38;0.80;;;18.90;44.80;;;;;;6196193;28;20045;-68
2022/03/08 02:43:25;;;;;;;1.00;0.70;;;18.90;44.80;;;;;;6197819;28;20489;-68
2022/03/08 02:46:25;;;;;;;1.15;0.90;;;18.90;44.70;;;;;;6197462;28;20080;-68
2022/03/08 02:49:26;;;;;;;0.95;0.85;;;18.90;44.80;;;;;;6197246;28;20058;-68
2022/03/08 02:52:26;;;;;;;1.05;0.82;;;18.90;44.80;;;;;;6196846;28;20038;-67
2022/03/08 02:55:31;;;;;;;1.65;1.10;;;18.90;44.80;;;;;;6197524;28;20322;-68
2022/03/08 02:58:31;;;;;;;1.20;0.90;;;18.90;44.90;;;;;;6196820;28;20033;-68
2022/03/08 03:01:32;;;;;;;2.25;1.10;;;18.90;44.80;;;;;;6197492;28;20030;-68
2022/03/08 03:04:32;;;;;;;1.60;1.13;;;18.90;44.70;;;;;;6197252;28;20316;-68
2022/03/08 03:07:33;;;;;;;1.80;0.90;;;18.90;44.80;;;;;;6197682;28;20049;-68
2022/03/08 03:10:34;;;;;;;1.48;1.02;;;18.90;44.80;;;;;;6196790;28;20035;-68
2022/03/08 03:13:35;;;;;;;1.40;0.95;;;18.90;44.80;;;;;;6197596;28;20026;-68
2022/03/08 03:16:36;;;;;;;1.80;1.20;;;18.90;44.80;;;;;;6196609;28;20462;-67
2022/03/08 03:19:37;;;;;;;1.83;0.90;;;18.90;44.80;;;;;;6197015;28;20025;-68
2022/03/08 03:22:37;;;;;;;0.98;0.70;;;18.90;44.90;;;;;;6196599;28;20062;-68
2022/03/08 03:25:38;;;;;;;1.30;1.00;;;18.90;44.80;;;;;;6196614;28;20050;-68
2022/03/08 03:28:38;;;;;;;1.83;0.90;;;18.90;44.90;;;;;;6196392;28;20120;-68
2022/03/08 03:31:39;;;;;;;1.30;0.82;;;18.90;44.80;;;;;;6196812;28;20506;-68
2022/03/08 03:34:39;;;;;;;1.25;0.93;;;18.90;44.80;;;;;;6196541;28;20026;-67
2022/03/08 03:37:40;;;;;;;1.70;1.10;;;18.90;44.90;;;;;;6196811;28;20323;-68
2022/03/08 03:40:41;;;;;;;1.40;1.05;;;18.90;44.80;;;;;;6197054;28;20041;-68
2022/03/08 03:43:42;;;;;;;1.35;0.77;;;18.90;44.90;;;;;;6196431;28;20030;-69
2022/03/08 03:46:43;;;;;;;1.75;1.02;;;18.90;44.80;;;;;;6196053;28;20493;-68
2022/03/08 03:49:44;;;;;;;1.13;0.90;;;18.90;44.90;;;;;;6195919;28;20038;-67
2022/03/08 03:52:44;;;;;;;1.45;1.10;;;18.90;44.90;;;;;;6196466;28;20084;-68
2022/03/08 03:55:45;;;;;;;0.95;0.85;;;18.90;44.90;;;;;;6196461;28;20026;-68
2022/03/08 03:58:45;;;;;;;1.10;1.00;;;18.90;44.90;;;;;;6195461;28;20430;-68
2022/03/08 04:01:46;;;;;;;0.90;0.80;;;18.90;44.90;;;;;;6195714;28;20030;-68
2022/03/08 04:04:46;;;;;;;2.03;1.13;;;18.90;44.90;;;;;;6195777;28;20030;-68
2022/03/08 04:07:47;;;;;;;1.02;0.80;;;18.90;44.90;;;;;;6195428;28;20034;-68
2022/03/08 04:10:48;;;;;;;1.25;0.95;;;18.90;44.90;;;;;;6195267;28;20090;-68
2022/03/08 04:13:49;;;;;;;1.67;1.25;;;18.90;44.90;;;;;;6195466;28;20030;-68
2022/03/08 04:16:49;;;;;;;1.55;1.02;;;18.90;45.00;;;;;;6195800;28;20030;-68
2022/03/08 04:19:50;;;;;;;1.55;0.88;;;18.90;45.00;;;;;;6195303;28;20109;-68
2022/03/08 04:22:50;;;;;;;1.65;1.10;;;18.90;44.90;;;;;;6195331;28;20023;-68
2022/03/08 04:25:51;;;;;;;0.93;0.80;;;18.90;44.90;;;;;;6194963;28;20050;-69
2022/03/08 04:28:51;;;;;;;1.30;0.90;;;18.90;45.00;;;;;;6194741;28;20026;-68
2022/03/08 04:31:52;;;;;;;1.40;0.95;;;18.90;44.90;;;;;;6195073;28;20096;-67
2022/03/08 04:34:52;;;;;;;1.13;0.88;;;18.90;45.00;;;;;;6195057;28;20116;-68
2022/03/08 04:37:53;;;;;;;1.42;0.90;;;18.90;45.00;;;;;;6194895;28;20030;-68
2022/03/08 04:40:53;;;;;;;1.55;0.90;;;18.90;45.00;;;;;;6194865;28;20482;-68
2022/03/08 04:43:54;;;;;;;1.60;1.15;;;18.90;45.00;;;;;;6194595;28;20092;-68
2022/03/08 04:46:54;;;;;;;1.20;1.00;;;18.90;45.00;;;;;;6195107;28;20474;-68
2022/03/08 04:49:55;;;;;;;1.52;1.02;;;18.90;45.00;;;;;;6194351;28;20071;-68
2022/03/08 04:52:55;;;;;;;1.30;0.90;;;18.90;44.90;;;;;;6194140;28;20019;-68
2022/03/08 04:55:56;;;;;;;2.47;1.00;;;18.90;45.00;;;;;;6194699;28;20037;-68
2022/03/08 04:58:58;;;;;;;1.33;0.93;;;18.90;44.80;;;;;;6194298;28;20162;-68
2022/03/08 05:01:59;;;;;;;1.00;0.85;;;18.90;45.00;;;;;;6193754;28;20478;-68
2022/03/08 05:04:59;;;;;;;0.85;0.70;;;18.90;45.00;;;;;;6195102;28;20037;-68
2022/03/08 05:08:00;;;;;;;1.27;0.80;;;18.90;45.10;;;;;;6194508;28;20058;-68
2022/03/08 05:11:01;;;;;;;2.10;1.10;;;18.90;44.90;;;;;;6193809;28;20061;-68
2022/03/08 05:14:02;;;;;;;2.00;0.95;;;18.90;44.80;;;;;;6194662;28;20466;-68
2022/03/08 05:17:03;;;;;;;1.13;0.77;;;18.90;45.00;;;;;;6195694;28;20022;-68
2022/03/08 05:20:05;;;;;;;1.45;1.10;;;18.80;44.80;;;;;;6194177;28;20033;-68
2022/03/08 05:23:05;;;;;;;1.02;0.80;;;18.90;44.90;;;;;;6194652;28;20033;-68
2022/03/08 05:26:06;;;;;;;1.30;0.93;;;18.90;44.90;;;;;;6193801;28;20062;-68
2022/03/08 05:29:07;;;;;;;1.95;1.20;;;18.90;44.90;;;;;;6194575;28;20034;-67
2022/03/08 05:32:08;;;;;;;1.10;0.93;;;18.90;44.80;;;;;;6193607;28;20341;-68
2022/03/08 05:35:09;;;;;;;2.33;1.00;;;18.90;44.90;;;;;;6194200;28;20371;-68
2022/03/08 05:38:10;;;;;;;1.17;0.88;;;18.90;44.80;;;;;;6194123;28;20486;-68
2022/03/08 05:41:10;;;;;;;1.80;1.00;;;18.90;44.90;;;;;;6194102;28;20403;-68
2022/03/08 05:44:11;;;;;;;1.65;0.80;;;18.90;44.80;;;;;;6193853;28;20548;-68
2022/03/08 05:47:11;;;;;;;1.40;0.90;;;18.90;44.70;;;;;;6194022;28;20034;-68
2022/03/08 05:50:12;;;;;;;0.85;0.70;;;18.90;44.80;;;;;;6193629;28;20026;-68
2022/03/08 05:53:12;;;;;;;2.13;1.00;;;18.90;44.80;;;;;;6193608;28;20022;-67
2022/03/08 05:56:13;;;;;;;1.77;0.90;;;18.90;44.80;;;;;;6193594;28;20502;-68
2022/03/08 05:59:14;;;;;;;0.93;0.73;;;18.90;44.70;;;;;;6193759;28;20187;-68
2022/03/08 06:02:15;;;;;;;1.35;1.00;;;18.90;44.80;;;;;;6181965;28;20035;-68
2022/03/08 06:05:16;;;;;;;1.48;1.10;;;18.90;44.80;;;;;;6169820;28;20260;-68
2022/03/08 06:08:16;;;;;;;1.60;0.90;;;18.90;44.70;;;;;;6169870;28;20101;-67
2022/03/08 06:11:17;;;;;;;1.90;0.90;;;18.90;44.80;;;;;;6169858;28;20181;-67
2022/03/08 06:14:17;;;;;;;1.67;1.15;;;18.90;44.70;;;;;;6171013;28;20501;-68
2022/03/08 06:17:18;;;;;;;1.80;1.15;;;18.90;44.80;;;;;;6174494;28;20033;-68
2022/03/08 06:20:19;;;;;;;2.05;1.10;;;18.90;44.70;;;;;;6173772;28;20031;-68
2022/03/08 06:23:19;;;;;;;1.33;0.95;;;18.90;44.70;;;;;;6174096;28;20474;-68
2022/03/08 06:26:20;;;;;;;1.45;0.98;;;18.90;44.60;;;;;;6189515;28;20620;-68
2022/03/08 06:29:20;;;;;;;1.17;0.93;;;18.90;44.70;;;;;;6198051;28;20045;-68
2022/03/08 06:32:21;;;;;;;2.17;1.05;;;18.90;44.60;;;;;;6197819;28;20048;-68
2022/03/08 06:35:22;;;;;;;1.50;1.10;;;18.90;44.60;;;;;;6198135;28;20102;-68
2022/03/08 06:38:22;;;;;;;1.48;1.00;;;18.90;44.70;;;;;;6197341;28;20039;-68
2022/03/08 06:41:24;;;;;;;1.55;1.00;;;18.90;44.60;;;;;;6197798;28;20027;-68
2022/03/08 06:44:25;;;;;;;1.77;1.23;;;18.90;44.60;;;;;;6197442;28;20030;-67
2022/03/08 06:47:25;;;;;;;1.10;0.75;;;18.90;44.70;;;;;;6197940;28;20041;-68
2022/03/08 06:50:26;;;;;;;1.67;1.08;;;18.90;44.70;;;;;;6197115;28;20118;-67
2022/03/08 06:53:27;;;;;;;1.92;0.90;;;18.90;44.60;;;;;;6197146;28;20031;-67
2022/03/08 06:56:27;;;;;;;1.60;1.00;;;18.90;44.60;;;;;;6197675;28;20041;-67
2022/03/08 06:59:27;;;;;;;1.38;1.00;;;18.90;44.70;;;;;;6195048;28;20019;-68
2022/03/08 07:02:28;;;;;;;2.38;1.08;;;18.90;44.60;;;;;;6207961;28;20088;-69
2022/03/08 07:05:29;;;;;;;1.50;0.98;;;18.90;44.70;;;;;;6204866;28;20027;-68
2022/03/08 07:08:29;;;;;;;1.90;1.10;;;18.90;44.70;;;;;;6208196;28;20026;-68
2022/03/08 07:11:31;;;;;;;1.38;1.08;;;18.90;45.30;;;;;;6223700;28;20030;-67
2022/03/08 07:14:31;;;;;;;1.35;1.02;;;18.90;45.40;;;;;;6221859;28;20107;-67
2022/03/08 07:17:32;;;;;;;2.00;1.15;;;18.90;44.60;;;;;;6188332;28;20027;-68
2022/03/08 07:20:33;;;;;;;1.33;1.02;;;18.90;44.70;;;;;;6198270;28;20026;-67
2022/03/08 07:23:34;;;;;;;4.10;1.10;;;18.90;44.80;;;;;;6198347;28;20053;-68
2022/03/08 07:26:34;;;;;;;5.07;1.08;;;19.00;44.70;;;;;;6197516;28;20105;-68
2022/03/08 07:29:35;;;;;;;2.05;1.20;;;19.00;44.80;;;;;;6197980;28;20034;-68
2022/03/08 07:32:36;;;;;;;1.77;1.00;;;19.00;44.80;;;;;;6198056;28;20034;-68
2022/03/08 07:35:37;;;;;;;4.45;1.10;;;19.00;44.90;;;;;;6197686;28;20130;-68
2022/03/08 07:38:37;;;;;;;1.77;0.90;;;19.00;44.90;;;;;;6197535;28;20031;-68
2022/03/08 07:41:38;;;;;;;1.88;1.20;;;18.90;44.70;;;;;;6197666;28;20030;-68
2022/03/08 07:44:39;;;;;;;1.15;0.93;;;19.00;44.90;;;;;;6198098;28;20033;-68
2022/03/08 07:47:40;;;;;;;1.55;1.02;;;18.90;44.90;;;;;;6197321;28;20061;-68
2022/03/08 07:50:40;;;;;;;1.20;0.88;;;19.00;45.00;;;;;;6198272;28;20106;-68
2022/03/08 07:53:41;;;;;;;1.40;1.10;;;19.00;45.00;;;;;;6197672;28;20388;-68
2022/03/08 07:56:42;;;;;;;1.15;0.80;;;18.90;44.90;;;;;;6197448;28;20478;-68
2022/03/08 07:59:42;;;;;;;2.20;1.08;;;19.00;45.10;;;;;;6197602;28;20102;-68
2022/03/08 08:02:43;;;;;;;1.20;0.90;;;19.00;45.10;;;;;;6197811;28;20033;-68
2022/03/08 08:05:43;;;;;;;1.27;0.90;;;19.00;45.10;;;;;;6196905;28;20065;-68
2022/03/08 08:08:44;;;;;;;2.13;1.13;;;18.90;45.00;;;;;;6197222;28;20508;-68
2022/03/08 08:11:44;;;;;;;1.48;0.90;;;19.00;45.10;;;;;;6196581;28;20045;-68
2022/03/08 08:14:45;;;;;;;2.00;1.38;;;19.00;45.10;;;;;;6197432;28;20045;-68
2022/03/08 08:17:45;;;;;;;0.98;0.80;;;18.90;45.00;;;;;;6196857;28;20110;-68
2022/03/08 08:20:46;;;;;;;1.30;0.90;;;19.00;45.10;;;;;;6199076;28;20080;-68
2022/03/08 08:23:46;;;;;;;1.23;0.93;;;19.00;45.10;;;;;;6210993;28;20034;-68
2022/03/08 08:26:47;;;;;;;1.20;0.88;;;19.00;45.10;;;;;;6195887;28;20101;-68
2022/03/08 08:29:48;;;;;;;1.70;0.90;;;19.00;45.20;;;;;;6199078;28;20026;-68
2022/03/08 08:32:50;;;;;;;1.73;0.82;;;19.00;45.20;;;;;;6197589;28;20041;-68
2022/03/08 08:35:52;;;;;;;1.17;0.85;;;19.00;45.20;;;;;;6196604;28;20429;-68
2022/03/08 08:38:52;;;;;;;1.80;1.13;;;19.00;45.20;;;;;;6195927;28;20068;-68
2022/03/08 08:41:53;;;;;;;2.60;1.00;;;19.00;45.20;;;;;;6196842;28;20057;-68
2022/03/08 08:44:53;;;;;;;0.75;0.70;;;19.00;45.20;;;;;;6196799;28;20034;-68
2022/03/08 08:47:54;;;;;;;1.55;1.00;;;19.00;45.20;;;;;;6196187;28;20034;-68
2022/03/08 08:50:55;;;;;;;1.25;0.90;;;19.00;45.20;;;;;;6196384;28;20026;-68
2022/03/08 08:53:55;;;;;;;1.42;0.77;;;19.00;45.30;;;;;;6196347;28;20023;-67
2022/03/08 08:56:56;;;;;;;1.70;1.10;;;19.00;45.40;;;;;;6196459;28;20049;-67
2022/03/08 08:59:57;;;;;;;4.70;0.90;;;19.00;45.20;;;;;;6195782;28;20030;-69
2022/03/08 09:02:57;;;;;;;3.90;0.80;;;19.00;45.20;;;;;;6196305;28;20043;-67
2022/03/08 09:05:58;;;;;;;1.30;0.98;;;19.00;45.20;;;;;;6195532;28;20113;-67
2022/03/08 09:08:59;;;;;;;2.13;0.85;;;19.00;45.30;;;;;;6194119;28;20030;-67
2022/03/08 09:11:59;;;;;;;2.58;1.10;;;19.00;45.30;;;;;;6193586;28;20038;-67
2022/03/08 09:15:02;;;;;;;11.82;1.10;;;19.00;45.40;;;;;;6195551;28;20085;-67
2022/03/08 09:18:05;;;;;;;1.33;0.90;;;19.00;45.40;;;;;;6195615;28;20026;-68
2022/03/08 09:21:06;;;;;;;1.02;0.90;;;19.00;45.40;;;;;;6209197;28;20029;-68
2022/03/08 09:24:06;;;;;;;2.20;1.10;;;19.00;45.40;;;;;;6200871;28;20377;-68
2022/03/08 09:27:07;;;;;;;2.10;1.05;;;19.00;45.40;;;;;;6195219;28;20027;-67
2022/03/08 09:30:08;;;;;;;0.93;0.68;;;19.00;45.40;;;;;;6195139;28;20493;-67
2022/03/08 09:33:09;;;;;;;2.03;0.70;;;19.00;45.50;;;;;;6196277;28;20434;-67
2022/03/08 09:36:09;;;;;;;3.78;0.85;;;19.00;45.50;;;;;;6196164;28;20032;-67
2022/03/08 09:39:10;;;;;;;1.70;0.90;;;19.00;45.40;;;;;;6196255;28;20031;-68
2022/03/08 09:42:11;;;;;;;0.98;0.73;;;19.00;45.40;;;;;;6196038;28;20019;-67
2022/03/08 09:45:12;;;;;;;1.27;0.80;;;19.00;45.50;;;;;;6196369;28;20015;-68
2022/03/08 09:48:12;;;;;;;0.75;0.70;;;19.00;45.50;;;;;;6197329;28;20515;-67
2022/03/08 09:51:14;;;;;;;1.27;0.88;;;19.00;45.50;;;;;;6200920;28;20046;-68
2022/03/08 09:54:15;;;;;;;1.45;0.80;;;19.00;45.40;;;;;;6201398;28;20035;-67
2022/03/08 09:57:18;;;;;;;1.35;0.90;;;19.00;45.40;;;;;;6202017;28;20033;-68
2022/03/08 10:00:22;;;;;;;0.57;0.52;;;19.00;45.50;;;;;;6201111;28;20469;-68
2022/03/08 10:03:35;;;;;;;1.02;0.73;;;19.00;45.50;;;;;;6201382;28;20557;-68
2022/03/08 10:06:40;;;;;;;1.02;0.70;;;19.00;45.40;;;;;;6200967;28;20109;-68
2022/03/08 10:09:55;;;;;;;0.95;0.80;;;19.00;45.50;;;;;;6200812;28;20077;-68
2022/03/08 10:12:56;;;;;;;1.30;0.93;;;19.00;45.50;;;;;;6200602;28;20093;-68
2022/03/08 10:16:08;;;;;;;1.42;0.73;;;19.00;45.50;;;;;;6200980;28;20035;-67
2022/03/08 10:19:12;;;;;;;1.08;0.73;;;19.00;45.50;;;;;;6200587;28;20034;-68
2022/03/08 10:22:34;;;;;;;1.65;1.00;;;19.00;45.50;;;;;;6200651;28;20023;-68
2022/03/08 10:25:34;;;;;;;1.30;0.68;;;19.00;45.50;;;;;;6200092;28;20050;-67
2022/03/08 10:28:45;;;;;;;1.05;0.65;;;19.00;45.50;;;;;;6200667;28;20490;-68
2022/03/08 10:31:46;;;;;;;5.07;0.85;;;19.00;45.50;;;;;;6200181;28;20567;-68
2022/03/08 10:34:54;;;;;;;1.73;0.70;;;19.00;45.50;;;;;;6199858;28;20405;-68
2022/03/08 10:38:04;;;;;;;2.33;0.80;;;19.00;45.50;;;;;;6200211;28;20033;-68
2022/03/08 10:41:18;;;;;;;0.65;0.63;;;19.00;45.50;;;;;;6200181;28;20038;-69
2022/03/08 10:44:36;;;;;;;0.70;0.60;;;19.00;45.50;;;;;;6199437;28;20037;-68
2022/03/08 10:47:46;;;;;;;1.10;0.70;;;19.00;45.50;;;;;;6199572;28;20035;-68
2022/03/08 10:50:51;;;;;;;0.90;0.70;;;19.00;45.60;;;;;;6198114;28;20584;-68
2022/03/08 10:53:52;;;;;;;0.82;0.70;;;19.00;45.60;;;;;;6199677;28;20497;-68
2022/03/08 10:56:55;;;;;;;1.02;0.73;;;19.00;45.60;;;;;;6199451;28;20053;-68
2022/03/08 10:59:56;;;;;;;1.58;0.68;;;19.00;45.50;;;;;;6198836;28;20018;-67
2022/03/08 11:02:59;;;;;;;1.05;0.68;;;19.00;45.60;;;;;;6203420;28;20117;-68
2022/03/08 11:06:05;;;;;;;0.80;0.70;;;19.00;45.60;;;;;;6199029;28;20026;-68
2022/03/08 11:09:06;;;;;;;1.50;0.82;;;19.00;45.60;;;;;;6199169;28;20026;-68
2022/03/08 11:12:07;;;;;;;0.88;0.60;;;19.00;45.50;;;;;;6199686;28;20113;-68
2022/03/08 11:15:10;;;;;;;1.33;0.70;;;19.00;45.60;;;;;;6199103;28;20053;-68
2022/03/08 11:18:13;;;;;;;0.75;0.63;;;19.00;46.30;;;;;;6199562;28;20482;-68
2022/03/08 11:21:15;;;;;;;0.80;0.55;;;19.00;45.60;;;;;;6199149;28;20018;-68
2022/03/08 11:24:16;;;;;;;1.30;0.65;;;19.00;45.60;;;;;;6198491;28;20400;-68
2022/03/08 11:27:18;;;;;;;1.10;0.90;;;19.00;45.60;;;;;;6198523;28;20505;-68
2022/03/08 11:30:22;;;;;;;0.88;0.70;;;19.00;45.60;;;;;;6198255;28;20037;-68
2022/03/08 11:33:42;;;;;;;1.00;0.70;;;19.00;45.60;;;;;;6198872;28;20038;-67
2022/03/08 11:36:52;;;;;;;1.40;0.70;;;19.00;45.60;;;;;;6198664;28;20132;-67
2022/03/08 11:40:11;;;;;;;0.68;0.65;;;19.00;45.60;;;;;;6199279;28;20054;-67
2022/03/08 11:43:11;;;;;;;0.80;0.55;;;19.00;45.60;;;;;;6198430;28;20466;-68
2022/03/08 11:46:18;;;;;;;0.95;0.70;;;19.00;45.70;;;;;;6198382;28;20097;-68
2022/03/08 11:49:41;;;;;;;1.10;0.70;;;19.00;45.60;;;;;;6198736;28;20559;-68
2022/03/08 11:52:41;;;;;;;1.00;0.70;;;19.00;45.60;;;;;;6197927;28;20477;-69
2022/03/08 11:55:47;;;;;;;1.00;0.60;;;19.00;45.70;;;;;;6198434;28;20041;-68
2022/03/08 11:58:49;;;;;;;0.68;0.60;;;19.00;45.70;;;;;;6197862;28;20027;-68
2022/03/08 12:01:54;;;;;;;1.35;0.77;;;19.00;45.70;;;;;;6198217;28;20018;-68
2022/03/08 12:04:55;;;;;;;0.82;0.63;;;19.00;45.70;;;;;;6197963;28;20030;-68
2022/03/08 12:07:55;;;;;;;0.80;0.60;;;19.00;45.70;;;;;;6197975;28;20037;-68
2022/03/08 12:11:13;;;;;;;0.98;0.70;;;19.00;45.70;;;;;;6197942;28;20030;-68
2022/03/08 12:14:22;;;;;;;3.40;0.60;;;19.00;45.70;;;;;;6197642;28;20026;-68
2022/03/08 12:17:22;;;;;;;0.50;0.43;;;19.00;45.70;;;;;;6198289;28;20077;-68
2022/03/08 12:20:23;;;;;;;1.27;0.70;;;19.00;45.70;;;;;;6201450;28;20038;-68
2022/03/08 12:23:23;;;;;;;0.82;0.50;;;19.00;45.70;;;;;;6197524;28;20022;-68
2022/03/08 12:26:29;;;;;;;0.80;0.60;;;19.00;45.70;;;;;;6196562;28;20521;-68
2022/03/08 12:29:38;;;;;;;0.70;0.60;;;19.00;45.80;;;;;;6197482;28;20181;-68
2022/03/08 12:32:42;;;;;;;0.82;0.60;;;19.00;45.70;;;;;;6197709;28;20505;-68
2022/03/08 12:35:52;;;;;;;0.75;0.70;;;19.00;45.80;;;;;;6197312;28;20034;-68
2022/03/08 12:38:53;;;;;;;0.60;0.60;;;19.00;45.70;;;;;;6197639;28;20029;-67
2022/03/08 12:41:58;;;;;;;0.88;0.70;;;19.00;45.80;;;;;;6197188;28;20121;-68
2022/03/08 12:45:03;;;;;;;0.60;0.60;;;19.00;45.80;;;;;;6197051;28;20481;-68
2022/03/08 12:48:03;;;;;;;0.77;0.60;;;19.00;45.80;;;;;;6196703;28;20130;-68
2022/03/08 12:51:04;;;;;;;2.95;0.60;;;19.00;45.80;;;;;;6196151;28;20038;-68
2022/03/08 12:54:05;;;;;;;0.70;0.57;;;19.00;45.80;;;;;;6196993;28;20486;-68
2022/03/08 12:57:06;;;;;;;1.10;0.73;;;19.00;45.80;;;;;;6197025;28;20378;-68
2022/03/08 13:00:07;;;;;;;0.80;0.70;;;19.00;45.80;;;;;;6196833;28;20297;-68
2022/03/08 13:03:17;;;;;;;1.17;0.50;;;19.00;45.80;;;;;;6196415;28;20030;-68
2022/03/08 13:06:18;;;;;;;0.90;0.70;;;19.00;45.80;;;;;;6196752;28;20053;-68
2022/03/08 13:09:18;;;;;;;0.50;0.50;;;19.00;45.90;;;;;;6196499;28;20133;-68
2022/03/08 13:12:21;;;;;;;0.60;0.57;;;19.00;45.80;;;;;;6196080;28;20030;-67
2022/03/08 13:15:24;;;;;;;0.70;0.52;;;19.00;45.80;;;;;;6196597;28;20030;-67
2022/03/08 13:18:26;;;;;;;1.00;0.57;;;19.00;45.90;;;;;;6196170;28;20030;-68
2022/03/08 13:21:27;;;;;;;0.43;0.40;;;19.00;45.90;;;;;;6196305;28;20037;-69
2022/03/08 13:24:28;;;;;;;0.77;0.50;;;19.00;45.90;;;;;;6196112;28;20498;-68
2022/03/08 13:27:29;;;;;;;0.75;0.55;;;19.00;45.90;;;;;;6196278;28;20054;-68
2022/03/08 13:30:44;;;;;;;0.47;0.43;;;19.00;45.90;;;;;;6184055;28;20038;-67
2022/03/08 13:33:47;;;;;;;0.85;0.70;;;19.00;45.90;;;;;;6192491;28;20034;-67
2022/03/08 13:36:56;;;;;;;0.32;0.32;;;19.00;45.80;;;;;;6194855;28;20477;-68
2022/03/08 13:39:57;;;;;;;3.60;0.40;;;19.00;45.90;;;;;;6194370;28;20513;-68
2022/03/08 13:42:59;;;;;;;2.65;0.52;;;19.00;46.10;;;;;;6194481;28;20032;-68
2022/03/08 13:46:02;;;;;;;1.20;0.60;;;19.00;45.80;;;;;;6194731;28;20030;-68
2022/03/08 13:49:08;;;;;;;1.48;0.63;;;19.00;45.80;;;;;;6188137;28;20073;-68
2022/03/08 13:52:08;;;;;;;0.50;0.40;;;19.00;45.70;;;;;;6194449;28;20037;-67
2022/03/08 13:55:12;;;;;;;1.35;0.65;;;19.00;45.10;;;;;;6195288;28;20018;-68
2022/03/08 13:58:15;;;;;;;3.75;0.90;;;19.00;44.50;;;;;;6194316;28;20026;-68
2022/03/08 14:01:17;;;;;;;1.45;0.73;;;19.00;43.60;;;;;;6194335;28;20038;-68
2022/03/08 14:04:27;;;;;;;2.20;1.00;;;19.00;43.20;;;;;;6192651;28;20022;-68
2022/03/08 14:07:27;;;;;;;5.72;1.02;;;19.00;42.10;;;;;;6194788;28;20405;-68
2022/03/08 14:10:29;;;;;;;2.50;0.95;;;19.00;42.50;;;;;;6193431;28;20037;-68
2022/03/08 14:13:33;;;;;;;1.98;0.88;;;19.00;42.80;;;;;;6194515;28;20033;-68
2022/03/08 14:16:44;;;;;;;2.58;0.88;;;19.00;43.30;;;;;;6193068;28;20034;-68
2022/03/08 14:19:47;;;;;;;2.75;0.80;;;19.00;43.70;;;;;;6194360;28;20019;-68
2022/03/08 14:22:59;;;;;;;1.38;0.80;;;19.00;44.00;;;;;;6192809;28;20022;-67
2022/03/08 14:26:08;;;;;;;1.65;0.77;;;19.00;44.20;;;;;;6191766;28;20057;-68
2022/03/08 14:29:15;;;;;;;1.30;0.80;;;19.00;44.50;;;;;;6194871;28;20343;-69
2022/03/08 14:32:16;;;;;;;1.55;0.80;;;19.00;44.50;;;;;;6192874;28;20744;-68
2022/03/08 14:35:18;;;;;;;2.15;0.80;;;19.00;44.70;;;;;;6195373;28;20065;-68
2022/03/08 14:38:19;;;;;;;2.70;1.20;;;19.00;44.70;;;;;;6220992;28;20406;-68
2022/03/08 14:41:24;;;;;;;0.52;0.52;;;19.00;44.30;;;;;;6202701;28;20040;-67
2022/03/08 14:44:27;;;;;;;1.70;1.00;;;19.00;44.10;;;;;;6187378;28;20026;-67
2022/03/08 14:47:30;;;;;;;1.80;0.88;;;18.90;43.40;;;;;;6189596;28;20074;-67
2022/03/08 14:50:30;;;;;;;4.53;0.98;;;19.00;42.70;;;;;;6173757;28;20046;-69
2022/03/08 14:53:32;;;;;;;4.22;0.80;;;18.90;42.10;;;;;;6198148;28;20062;-68
2022/03/08 14:56:32;;;;;;;2.50;0.77;;;19.00;43.10;;;;;;6197884;28;20476;-67
2022/03/08 14:59:33;;;;;;;2.20;0.80;;;19.00;42.60;;;;;;6198502;28;20032;-67
2022/03/08 15:02:34;;;;;;;2.78;1.30;;;19.00;42.60;;;;;;6197621;28;20106;-68
2022/03/08 15:05:36;;;;;;;2.10;0.95;;;19.00;41.20;;;;;;6198593;28;20026;-68
2022/03/08 15:08:37;;;;;;;2.90;1.38;;;19.00;41.20;;;;;;6197915;28;20117;-67
2022/03/08 15:11:38;;;;;;;1.45;1.00;;;19.00;41.60;;;;;;6197745;28;20042;-68
2022/03/08 15:14:39;;;;;;;9.48;1.10;;;19.00;41.00;;;;;;6198527;28;20031;-68
2022/03/08 15:17:39;;;;;;;2.08;1.00;;;19.00;40.70;;;;;;6206946;28;20037;-68
2022/03/08 15:20:40;;;;;;;5.68;1.00;;;19.00;40.80;;;;;;6221863;28;20588;-68
2022/03/08 15:23:41;;;;;;;2.28;1.27;;;19.00;40.70;;;;;;6221829;28;20056;-68
2022/03/08 15:26:42;;;;;;;3.28;1.42;;;19.00;40.50;;;;;;6201659;28;20547;-68
2022/03/08 15:29:42;;;;;;;3.53;1.02;;;18.90;40.50;;;;;;6196506;28;20389;-68
2022/03/08 15:32:43;;;;;;;1.95;0.80;;;18.90;40.50;;;;;;6197842;28;20030;-68
2022/03/08 15:35:44;;;;;;;3.78;0.80;;;18.90;40.30;;;;;;6198136;28;20101;-68
2022/03/08 15:38:44;;;;;;;2.60;1.17;;;18.90;40.20;;;;;;6221245;28;20121;-68
2022/03/08 15:41:45;;;;;;;2.63;1.10;;;18.90;40.20;;;;;;6219297;28;20489;-68
2022/03/08 15:44:46;;;;;;;4.95;0.90;;;18.90;39.80;;;;;;6196963;28;20370;-68
2022/03/08 15:47:47;;;;;;;3.22;1.00;;;18.90;40.50;;;;;;6196632;28;20041;-68